KALO

Waterloo Regional Airport

Waterloo, Iowa, USA
METAR KALO 231606Z 29009KT 8SM BKN016 BKN020 M01/M04 A3021 RMK AO2 T10111044
Observed Flight Rules
Feb-23 @ 16:06 UTC (32 minutes ago) Marginal Visual Flight Rules
Wind Visibility Clouds
290° at 9 knots 8 miles
  • Broken at 1,600' AGL
  • Broken at 2,000' AGL
Temperatures Readings
Current -1°C / 30°F
Dewpoint -4°C / 25°F
Humidity 80%
Altimeter 30.21" Hg
Pressure 1023 hPa
Elevation 264
METAR KALO 231606Z 29009KT 8SM BKN016 BKN020 M01/M04 A3021 RMK AO2 T10111044
Observed Flight Rules
Feb-23 @ 16:06 UTC
(32 minutes ago)
MVFR
Wind Visibility
290° at 9 knots 8 miles
Clouds
  • Broken at 1,600' AGL
  • Broken at 2,000' AGL
Temperature Dewpoint
-1°C / 30°F -4°C / 25°F
Humidity Altimeter Pressure
80% 30.21" Hg 1023 hPa